Time;durP1;ratioP1;P1;durP2;ratioP2;P2;SDS_P1;SDS_P2;PMS_P1;PMS_P2;Temp;Humidity;BMP_temperature;BMP_pressure;BME280_temperature;BME280_humidity;BME280_pressure;Samples;Min_cycle;Max_cycle;Signal;HPM_P1;HPM_P2
2020/12/10 00:01:33;;;;;;;11.10;9.90;;;;;;;;;;4594340;28;20450;-78
2020/12/10 00:03:49;;;;;;;11.37;9.87;;;9.90;82.20;;;;;;4595650;28;20933;-77
2020/12/10 00:06:04;;;;;;;10.33;9.23;;;9.60;82.30;;;;;;4593225;28;20428;-78
2020/12/10 00:08:20;;;;;;;10.60;8.90;;;9.30;82.50;;;;;;4595172;28;20475;-77
2020/12/10 00:10:36;;;;;;;11.17;9.20;;;10.80;83.40;;;;;;4592974;28;20448;-79
2020/12/10 00:12:51;;;;;;;11.23;10.00;;;8.70;82.20;;;;;;4594109;28;20446;-77
2020/12/10 00:15:09;;;;;;;11.10;9.43;;;;;;;;;;4594452;28;20463;-80
2020/12/10 00:17:26;;;;;;;11.90;8.90;;;;;;;;;;4593070;28;20528;-78
2020/12/10 00:19:42;;;;;;;11.63;9.70;;;11.40;84.20;;;;;;4594724;28;20568;-78
2020/12/10 00:21:58;;;;;;;12.33;9.40;;;;;;;;;;4592652;28;20491;-77
2020/12/10 00:24:14;;;;;;;11.50;9.70;;;8.80;82.90;;;;;;4595236;28;20503;-76
2020/12/10 00:26:30;;;;;;;10.83;9.73;;;11.20;84.40;;;;;;4593778;28;20444;-78
2020/12/10 00:28:46;;;;;;;11.10;10.00;;;;;;;;;;4595478;28;20923;-77
2020/12/10 00:31:04;;;;;;;12.43;10.10;;;9.90;83.60;;;;;;4575500;28;20963;-77
2020/12/10 00:33:20;;;;;;;11.67;10.10;;;10.80;83.80;;;;;;4595362;28;20435;-79
2020/12/10 00:35:36;;;;;;;12.57;10.27;;;;;;;;;;4592005;28;20436;-77
2020/12/10 00:37:52;;;;;;;11.77;10.33;;;;;;;;;;4591167;28;20467;-78
2020/12/10 00:40:09;;;;;;;12.17;10.50;;;;;;;;;;4593114;28;21072;-79
2020/12/10 00:42:25;;;;;;;13.03;10.40;;;;;;;;;;4594760;28;20476;-79
2020/12/10 00:44:41;;;;;;;11.33;10.13;;;10.90;84.90;;;;;;4592567;28;20440;-78
2020/12/10 00:46:59;;;;;;;10.43;9.37;;;9.50;80.00;;;;;;4594900;28;21008;-78
2020/12/10 00:49:15;;;;;;;12.23;10.00;;;;;;;;;;4592524;28;20460;-79
2020/12/10 00:51:31;;;;;;;13.47;10.27;;;;;;;;;;4593534;28;20452;-79
2020/12/10 00:53:47;;;;;;;11.30;10.10;;;;;;;;;;4576007;28;20445;-74
2020/12/10 00:56:03;;;;;;;12.50;10.10;;;9.60;82.50;;;;;;4593746;28;20468;-79
2020/12/10 00:58:19;;;;;;;12.43;10.83;;;9.30;81.80;;;;;;4594792;28;20454;-80
2020/12/10 01:00:34;;;;;;;11.23;9.97;;;;;;;;;;4594963;28;20570;-83
2020/12/10 01:02:51;;;;;;;10.67;9.57;;;;;;;;;;4594603;28;20436;-81
2020/12/10 01:05:07;;;;;;;11.10;9.73;;;9.60;81.30;;;;;;4592779;28;20452;-79
2020/12/10 01:07:23;;;;;;;10.20;9.20;;;;;;;;;;4595349;28;20448;-82
2020/12/10 01:09:38;;;;;;;11.67;10.13;;;10.30;82.00;;;;;;4594416;28;20531;-82
2020/12/10 01:11:54;;;;;;;11.87;9.43;;;;;;;;;;4595599;28;20440;-80
2020/12/10 01:14:09;;;;;;;11.43;9.57;;;9.30;81.60;;;;;;4593517;28;21045;-80
2020/12/10 01:16:24;;;;;;;10.67;8.50;;;10.90;82.30;;;;;;4594830;28;20474;-79
2020/12/10 01:18:41;;;;;;;10.47;8.67;;;;;;;;;;4592958;28;20450;-80
2020/12/10 01:20:57;;;;;;;11.17;9.57;;;8.90;77.80;;;;;;4595413;28;20817;-78
2020/12/10 01:23:12;;;;;;;9.80;8.80;;;11.30;82.60;;;;;;4591675;28;20898;-79
2020/12/10 01:25:28;;;;;;;10.73;9.30;;;8.10;80.50;;;;;;4594529;28;20447;-83
2020/12/10 01:27:43;;;;;;;12.67;9.83;;;10.40;82.00;;;;;;4593627;28;20448;-80
2020/12/10 01:29:59;;;;;;;10.60;9.50;;;;;;;;;;4595407;28;20978;-82
2020/12/10 01:32:15;;;;;;;12.13;9.97;;;9.10;81.60;;;;;;4594869;28;20436;-80
2020/12/10 01:34:33;;;;;;;10.73;9.27;;;;;;;;;;4594550;28;20437;-80
2020/12/10 01:36:49;;;;;;;12.10;9.73;;;;;;;;;;4592750;28;21032;-81
2020/12/10 01:39:05;;;;;;;12.10;9.87;;;;;;;;;;4592884;28;20525;-79
2020/12/10 01:41:21;;;;;;;13.07;10.20;;;;;;;;;;4593300;28;20910;-80
2020/12/10 01:43:37;;;;;;;12.00;10.37;;;;;;;;;;4594077;28;20471;-79
2020/12/10 01:45:53;;;;;;;12.83;10.43;;;10.40;83.30;;;;;;4590279;28;20494;-77
2020/12/10 01:48:09;;;;;;;11.37;10.27;;;;;;;;;;4591962;28;20531;-78
2020/12/10 01:50:25;;;;;;;13.83;9.43;;;;;;;;;;4591742;28;20452;-77
2020/12/10 01:52:42;;;;;;;11.77;10.47;;;;;;;;;;4592975;28;20820;-85
2020/12/10 01:54:58;;;;;;;14.10;10.23;;;;;;;;;;4592908;28;20498;-80
2020/12/10 01:57:14;;;;;;;12.57;10.30;;;;;;;;;;4592741;28;20444;-79
2020/12/10 01:59:31;;;;;;;13.07;10.43;;;;;;;;;;4594010;28;20440;-80
2020/12/10 02:01:48;;;;;;;11.43;9.63;;;;;;;;;;4591511;28;20567;-82
2020/12/10 02:04:04;;;;;;;10.63;9.53;;;;;;;;;;4592479;28;20487;-76
2020/12/10 02:06:20;;;;;;;11.73;9.93;;;;;;;;;;4590224;28;20448;-77
2020/12/10 02:08:40;;;;;;;11.23;9.87;;;;;;;;;;4592471;28;20483;-77
2020/12/10 02:10:56;;;;;;;11.47;10.17;;;;;;;;;;4591823;28;20432;-78
2020/12/10 02:13:12;;;;;;;12.00;9.67;;;;;;;;;;4593824;28;20467;-78
2020/12/10 02:15:28;;;;;;;11.33;9.80;;;;;;;;;;4591807;28;20975;-78
2020/12/10 02:17:44;;;;;;;11.13;9.23;;;;;;;;;;4592490;28;20439;-78
2020/12/10 02:20:00;;;;;;;12.40;9.63;;;;;;;;;;4591861;28;20472;-77
2020/12/10 02:22:16;;;;;;;13.63;9.97;;;;;;;;;;4595911;28;20463;-77
2020/12/10 02:24:33;;;;;;;10.87;9.73;;;;;;;;;;4595656;28;20448;-78
2020/12/10 02:26:49;;;;;;;10.77;9.67;;;;;;;;;;4597092;28;20440;-77
2020/12/10 02:29:05;;;;;;;11.03;9.90;;;;;;;;;;4594269;28;20539;-78
2020/12/10 02:31:22;;;;;;;12.33;9.70;;;9.10;85.80;;;;;;4596866;28;20443;-76
2020/12/10 02:33:39;;;;;;;12.77;9.33;;;8.60;85.90;;;;;;4595929;28;20813;-77
2020/12/10 02:35:54;;;;;;;12.10;9.77;;;;;;;;;;4595336;28;20448;-77
2020/12/10 02:38:11;;;;;;;12.50;9.60;;;9.70;86.50;;;;;;4595105;28;20436;-78
2020/12/10 02:40:29;;;;;;;11.57;10.20;;;8.80;81.20;;;;;;4596000;28;20873;-78
2020/12/10 02:42:45;;;;;;;12.07;10.30;;;;;;;;;;4596340;28;20818;-77
2020/12/10 02:45:01;;;;;;;12.53;9.93;;;;;;;;;;4594474;28;21002;-77
2020/12/10 02:47:16;;;;;;;13.43;10.50;;;;;;;;;;4595403;28;20498;-77
2020/12/10 02:49:32;;;;;;;12.83;10.27;;;;;;;;;;4595416;28;20464;-77
2020/12/10 02:51:48;;;;;;;10.97;9.87;;;8.30;86.10;;;;;;4596823;28;20444;-78
2020/12/10 02:54:03;;;;;;;12.20;10.90;;;;;;;;;;4595114;28;20455;-77
2020/12/10 02:56:20;;;;;;;13.43;10.13;;;;;;;;;;4595847;28;20440;-77
2020/12/10 02:58:36;;;;;;;13.47;10.07;;;9.00;86.60;;;;;;4594895;28;20535;-78
2020/12/10 03:00:54;;;;;;;13.30;9.93;;;;;;;;;;4595549;28;20472;-79
2020/12/10 03:03:10;;;;;;;11.60;10.03;;;;;;;;;;4593587;28;20530;-76
2020/12/10 03:05:26;;;;;;;11.13;9.87;;;;;;;;;;4596436;28;20448;-77
2020/12/10 03:07:41;;;;;;;10.53;9.07;;;;;;;;;;4594842;28;20454;-77
2020/12/10 03:09:57;;;;;;;11.67;10.10;;;;;;;;;;4596343;28;21014;-76
2020/12/10 03:12:14;;;;;;;13.03;10.10;;;;;;;;;;4594834;28;20511;-77
2020/12/10 03:14:30;;;;;;;11.60;9.47;;;;;;;;;;4595945;28;20451;-75
2020/12/10 03:16:45;;;;;;;10.80;9.70;;;10.00;87.30;;;;;;4595082;28;20527;-76
2020/12/10 03:19:01;;;;;;;12.23;9.67;;;;;;;;;;4595894;28;20443;-78
2020/12/10 03:21:17;;;;;;;14.30;9.93;;;8.10;86.10;;;;;;4595039;28;20854;-77
2020/12/10 03:23:32;;;;;;;11.97;10.60;;;;;;;;;;4595841;28;20539;-78
2020/12/10 03:25:48;;;;;;;13.63;10.87;;;;;;;;;;4595514;28;20805;-76
2020/12/10 03:28:05;;;;;;;13.80;10.77;;;;;;;;;;4594134;28;20465;-77
2020/12/10 03:30:21;;;;;;;11.33;9.73;;;;;;;;;;4595268;28;20444;-77
2020/12/10 03:32:37;;;;;;;12.83;10.67;;;8.50;86.20;;;;;;4594839;28;21000;-78
2020/12/10 03:34:56;;;;;;;13.03;10.60;;;;;;;;;;4595597;28;20444;-78
2020/12/10 03:37:11;;;;;;;12.53;10.10;;;8.40;86.80;;;;;;4594285;28;20486;-78
2020/12/10 03:39:28;;;;;;;12.77;11.00;;;8.70;81.90;;;;;;4594647;28;20432;-76
2020/12/10 03:41:45;;;;;;;11.53;9.97;;;;;;;;;;4592929;28;20970;-78
2020/12/10 03:44:01;;;;;;;11.77;9.73;;;;;;;;;;4596293;28;20443;-78
2020/12/10 03:46:18;;;;;;;15.87;10.87;;;;;;;;;;4594035;28;20519;-77
2020/12/10 03:48:34;;;;;;;15.07;10.90;;;;;;;;;;4596185;28;20447;-76
2020/12/10 03:50:50;;;;;;;12.53;9.80;;;;;;;;;;4594086;28;20822;-76
2020/12/10 03:53:06;;;;;;;12.40;10.40;;;;;;;;;;4595696;28;20534;-77
2020/12/10 03:55:22;;;;;;;11.40;10.10;;;;;;;;;;4592772;28;20444;-77
2020/12/10 03:57:38;;;;;;;13.57;10.20;;;;;;;;;;4595642;28;20506;-78
2020/12/10 03:59:55;;;;;;;9.83;8.83;;;;;;;;;;4594091;28;20472;-77
2020/12/10 04:02:11;;;;;;;10.50;9.37;;;;;;;;;;4594054;28;20478;-78
2020/12/10 04:04:26;;;;;;;10.47;9.37;;;;;;;;;;4594105;28;20432;-76
2020/12/10 04:06:43;;;;;;;10.33;9.07;;;;;;;;;;4595343;28;20498;-76
2020/12/10 04:09:00;;;;;;;9.67;8.67;;;;;;;;;;4593989;28;20448;-77
2020/12/10 04:11:16;;;;;;;9.37;8.37;;;;;;;;;;4593821;28;20443;-77
2020/12/10 04:13:31;;;;;;;10.13;9.07;;;;;;;;;;4594198;28;20451;-77
2020/12/10 04:15:48;;;;;;;9.97;8.97;;;;;;;;;;4594640;28;21012;-77
2020/12/10 04:18:04;;;;;;;9.30;8.20;;;;;;;;;;4593041;28;20463;-77
2020/12/10 04:20:19;;;;;;;9.33;7.43;;;8.20;86.60;;;;;;4594297;28;20495;-78
2020/12/10 04:22:35;;;;;;;9.20;7.93;;;9.00;87.10;;;;;;4594625;28;20448;-77
2020/12/10 04:24:51;;;;;;;8.90;8.00;;;;;;;;;;4594341;28;20479;-77
2020/12/10 04:27:07;;;;;;;8.97;7.93;;;;;;;;;;4594859;28;20444;-78
2020/12/10 04:29:23;;;;;;;8.63;7.77;;;;;;;;;;4594025;28;20474;-77
2020/12/10 04:31:40;;;;;;;8.43;7.60;;;;;;;;;;4595514;28;20531;-78
2020/12/10 04:33:55;;;;;;;10.33;8.73;;;;;;;;;;4592101;28;20439;-77
2020/12/10 04:36:11;;;;;;;8.90;8.00;;;;;;;;;;4594276;28;20440;-81
2020/12/10 04:38:27;;;;;;;8.77;7.47;;;;;;;;;;4593329;28;20534;-77
2020/12/10 04:40:44;;;;;;;10.30;8.47;;;;;;;;;;4594375;28;20475;-78
2020/12/10 04:43:01;;;;;;;9.70;8.47;;;8.90;87.20;;;;;;4593287;28;20470;-78
2020/12/10 04:45:17;;;;;;;8.90;8.00;;;;;;;;;;4593741;28;20436;-77
2020/12/10 04:47:34;;;;;;;10.47;8.10;;;;;;;;;;4593098;28;20444;-78
2020/12/10 04:49:52;;;;;;;8.80;7.90;;;;;;;;;;4593421;28;20460;-78
2020/12/10 04:52:08;;;;;;;9.00;7.50;;;9.30;87.40;;;;;;4591936;28;20854;-78
2020/12/10 04:54:24;;;;;;;9.40;7.83;;;;;;;;;;4594538;28;20456;-77
2020/12/10 04:56:40;;;;;;;11.27;9.03;;;;;;;;;;4592149;28;20448;-77
2020/12/10 04:58:56;;;;;;;8.87;7.97;;;;;;;;;;4594343;28;20446;-77
2020/12/10 05:01:14;;;;;;;9.03;8.13;;;;;;;;;;4593196;28;20913;-80
2020/12/10 05:03:32;;;;;;;8.40;7.50;;;;;;;;;;4594146;28;20439;-78
2020/12/10 05:05:47;;;;;;;8.90;8.00;;;8.40;87.20;;;;;;4593515;28;20486;-76
2020/12/10 05:08:05;;;;;;;9.30;8.40;;;8.70;81.80;;;;;;4593483;28;20444;-78
2020/12/10 05:10:21;;;;;;;9.10;8.20;;;;;;;;;;4593903;28;20980;-77
2020/12/10 05:12:37;;;;;;;9.60;8.10;;;;;;;;;;4592986;28;20498;-77
2020/12/10 05:14:52;;;;;;;8.73;7.83;;;10.30;87.80;;;;;;4594070;28;20918;-77
2020/12/10 05:17:10;;;;;;;8.90;8.00;;;;;;;;;;4592653;28;20436;-78
2020/12/10 05:19:27;;;;;;;8.63;7.73;;;;;;;;;;4594632;28;20475;-77
2020/12/10 05:21:54;;;;;;;9.20;8.20;;;8.90;86.80;;;;;;4592425;28;20892;-77
2020/12/10 05:24:19;;;;;;;8.70;7.90;;;;;;;;;;4594664;28;20437;-77
2020/12/10 05:26:35;;;;;;;9.83;8.87;;;;;;;;;;4592623;28;20482;-77
2020/12/10 05:28:52;;;;;;;8.90;8.00;;;;;;;;;;4594080;28;20506;-76
2020/12/10 05:31:09;;;;;;;9.40;8.40;;;8.00;80.60;;;;;;4592503;28;20444;-78
2020/12/10 05:33:24;;;;;;;9.43;8.43;;;8.90;86.70;;;;;;4592500;28;20448;-77
2020/12/10 05:35:42;;;;;;;10.03;9.03;;;;;;;;;;4592648;28;20455;-76
2020/12/10 05:38:07;;;;;;;14.00;11.30;;;8.60;81.70;;;;;;4592540;28;20813;-78
2020/12/10 05:40:23;;;;;;;9.20;8.20;;;;;;;;;;4592792;28;20478;-77
2020/12/10 05:42:41;;;;;;;8.73;7.83;;;8.70;86.60;;;;;;4593016;28;20570;-77
2020/12/10 05:44:57;;;;;;;9.57;8.33;;;;;;;;;;4591886;28;20428;-77
2020/12/10 05:47:16;;;;;;;9.30;8.40;;;;;;;;;;4591425;28;20448;-77
2020/12/10 05:49:32;;;;;;;9.30;8.30;;;;;;;;;;4593369;28;20440;-76
2020/12/10 05:51:50;;;;;;;10.27;8.93;;;;;;;;;;4592095;28;20681;-77
2020/12/10 05:54:09;;;;;;;10.83;9.73;;;8.60;81.40;;;;;;4593817;28;20447;-77
2020/12/10 05:56:25;;;;;;;8.97;8.07;;;;;;;;;;4591692;28;20523;-78
2020/12/10 05:58:50;;;;;;;9.67;8.77;;;9.00;81.20;;;;;;4592393;28;20452;-77
2020/12/10 06:01:10;;;;;;;10.00;8.93;;;;;;;;;;4590514;28;20563;-79
2020/12/10 06:03:26;;;;;;;8.97;8.07;;;;;;;;;;4593641;28;20444;-77
2020/12/10 06:05:43;;;;;;;10.67;9.57;;;;;;;;;;4591935;28;20450;-77
2020/12/10 06:08:04;;;;;;;8.73;7.80;;;;;;;;;;4593552;28;20515;-76
2020/12/10 06:10:20;;;;;;;9.43;8.47;;;;;;;;;;4593371;28;20483;-77
2020/12/10 06:12:36;;;;;;;11.47;8.87;;;;;;;;;;4593296;28;20981;-78
2020/12/10 06:14:53;;;;;;;9.00;8.03;;;;;;;;;;4590608;28;20978;-78
2020/12/10 06:17:09;;;;;;;9.87;8.87;;;;;;;;;;4593112;28;20519;-76
2020/12/10 06:19:33;;;;;;;9.50;8.70;;;8.20;81.10;;;;;;4592071;28;20435;-78
2020/12/10 06:21:49;;;;;;;8.83;7.93;;;;;;;;;;4591059;28;20479;-77
2020/12/10 06:24:33;;;;;;;8.17;7.10;;;8.50;86.40;;;;;;4592454;28;20440;-77
2020/12/10 06:26:49;;;;;;;6.57;5.97;;;;;;;;;;4584824;28;20456;-78
2020/12/10 06:29:22;;;;;;;5.87;5.27;;;8.80;80.80;;;;;;4593507;28;20440;-78
2020/12/10 06:32:01;;;;;;;6.23;5.27;;;9.10;81.30;;;;;;4591343;28;20832;-76
2020/12/10 06:34:33;;;;;;;5.70;5.10;;;8.20;80.80;;;;;;4592550;28;21211;-77
2020/12/10 06:36:48;;;;;;;6.63;5.93;;;;;;;;;;4591950;28;20424;-77
2020/12/10 06:39:04;;;;;;;6.60;4.87;;;;;;;;;;4592460;28;20467;-76
2020/12/10 06:41:22;;;;;;;6.47;5.10;;;8.60;86.80;;;;;;4590765;28;20476;-78
2020/12/10 06:43:38;;;;;;;4.63;4.23;;;;;;;;;;4592080;28;20444;-78
2020/12/10 06:45:59;;;;;;;4.33;3.93;;;8.10;80.80;;;;;;4592753;28;20432;-78
2020/12/10 06:48:19;;;;;;;4.50;3.80;;;;;;;;;;4590224;28;20502;-78
2020/12/10 06:50:37;;;;;;;3.63;3.33;;;;;;;;;;4592967;28;20881;-78
2020/12/10 06:53:09;;;;;;;3.60;3.30;;;;;;;;;;4591597;28;20927;-79
2020/12/10 06:55:25;;;;;;;3.30;3.00;;;;;;;;;;4592657;28;20853;-79
2020/12/10 06:58:02;;;;;;;2.90;2.60;;;;;;;;;;4590862;28;20451;-80
2020/12/10 07:00:42;;;;;;;4.17;3.00;;;6.90;79.20;;;;;;4592868;28;20478;-77
2020/12/10 07:03:13;;;;;;;3.03;2.67;;;7.90;80.50;;;;;;4591467;28;20480;-77
2020/12/10 07:05:31;;;;;;;3.00;2.70;;;9.30;80.60;;;;;;4591823;28;20498;-79
2020/12/10 07:08:05;;;;;;;4.03;2.67;;;;;;;;;;4591138;28;20495;-77
2020/12/10 07:10:37;;;;;;;3.27;2.30;;;8.50;80.40;;;;;;4593940;28;20907;-78
2020/12/10 07:12:56;;;;;;;2.30;2.10;;;;;;;;;;4596407;28;20463;-78
2020/12/10 07:15:13;;;;;;;2.23;2.03;;;;;;;;;;4593777;28;20460;-77
2020/12/10 07:17:29;;;;;;;2.80;2.47;;;9.30;86.00;;;;;;4594374;28;20447;-79
2020/12/10 07:19:45;;;;;;;2.23;2.03;;;;;;;;;;4592767;28;20451;-80
2020/12/10 07:22:01;;;;;;;2.67;2.27;;;;;;;;;;4594074;28;20479;-78
2020/12/10 07:24:18;;;;;;;2.77;2.17;;;;;;;;;;4594344;28;20447;-77
2020/12/10 07:26:34;;;;;;;2.40;2.20;;;;;;;;;;4595341;28;20443;-78
2020/12/10 07:28:53;;;;;;;1.90;1.80;;;8.50;79.40;;;;;;4594650;28;20439;-77
2020/12/10 07:31:13;;;;;;;2.10;1.80;;;;;;;;;;4595379;28;20448;-79
2020/12/10 07:33:30;;;;;;;3.30;1.77;;;;;;;;;;4595023;28;20455;-77
2020/12/10 07:35:46;;;;;;;2.27;1.80;;;;;;;;;;4594859;28;20893;-79
2020/12/10 07:38:09;;;;;;;3.13;1.93;;;7.20;78.20;;;;;;4594078;28;20444;-78
2020/12/10 07:40:26;;;;;;;5.67;2.80;;;;;;;;;;4594210;28;20436;-78
2020/12/10 07:42:42;;;;;;;2.00;1.90;;;;;;;;;;4600797;28;20518;-83
2020/12/10 07:45:10;;;;;;;2.20;1.97;;;;;;;;;;4605659;28;20493;-82
2020/12/10 07:47:25;;;;;;;2.10;1.83;;;;;;;;;;4601129;28;20428;-85
2020/12/10 07:49:41;;;;;;;3.03;1.70;;;;;;;;;;4601675;28;20448;-87
2020/12/10 07:52:04;;;;;;;2.63;1.33;;;;;;;;;;4611715;28;20521;-85
2020/12/10 07:54:20;;;;;;;2.60;1.70;;;;;;;;;;4593918;28;20519;-86
2020/12/10 07:56:36;;;;;;;2.90;2.60;;;7.10;79.90;;;;;;4596578;28;20825;-81
2020/12/10 07:59:01;;;;;;;3.30;3.00;;;;;;;;;;4595269;28;20444;-83
2020/12/10 08:01:20;;;;;;;8.40;3.10;;;;;;;;;;4596146;28;20431;-83
2020/12/10 08:03:47;;;;;;;3.17;2.40;;;7.10;78.60;;;;;;4595372;28;20771;-83
2020/12/10 08:06:04;;;;;;;3.07;2.80;;;;;;;;;;4595846;28;20463;-83
2020/12/10 08:08:33;;;;;;;5.30;3.77;;;7.80;75.70;;;;;;4595848;28;20432;-84
2020/12/10 08:10:48;;;;;;;4.50;4.10;;;;;;;;;;4595041;28;20834;-79
2020/12/10 08:13:11;;;;;;;4.93;4.53;;;;;;;;;;4594891;28;20436;-81
2020/12/10 08:15:28;;;;;;;9.87;7.20;;;;;;;;;;4593246;28;20460;-80
2020/12/10 08:17:46;;;;;;;6.13;5.63;;;;;;;;;;4595794;28;20869;-81
2020/12/10 08:20:02;;;;;;;6.90;6.30;;;;;;;;;;4591984;28;20441;-80
2020/12/10 08:22:20;;;;;;;7.93;7.13;;;;;;;;;;4595231;28;20486;-80
2020/12/10 08:24:38;;;;;;;8.40;7.63;;;;;;;;;;4592628;28;20467;-79
2020/12/10 08:26:58;;;;;;;9.53;8.60;;;;;;;;;;4595763;28;20460;-80
2020/12/10 08:29:15;;;;;;;8.97;8.17;;;7.90;81.50;;;;;;4575736;28;20499;-81
2020/12/10 08:31:33;;;;;;;7.93;7.23;;;;;;;;;;4593512;28;20511;-81
2020/12/10 08:33:52;;;;;;;8.00;7.30;;;;;;;;;;4593727;28;20436;-79
2020/12/10 08:36:08;;;;;;;7.23;6.63;;;;;;;;;;4595195;28;20506;-81
2020/12/10 08:38:24;;;;;;;7.60;6.90;;;;;;;;;;4594040;28;20483;-79
2020/12/10 08:40:41;;;;;;;9.03;8.23;;;;;;;;;;4593168;28;20440;-82
2020/12/10 08:43:08;;;;;;;9.33;8.30;;;;;;;;;;4593746;28;20476;-80
2020/12/10 08:45:31;;;;;;;10.67;9.60;;;;;;;;;;4593941;28;20447;-82
2020/12/10 08:47:48;;;;;;;10.43;9.43;;;;;;;;;;4595116;28;20433;-79
2020/12/10 08:50:25;;;;;;;11.37;10.17;;;;;;;;;;4593410;28;20442;-82
2020/12/10 08:52:45;;;;;;;11.43;10.33;;;;;;;;;;4594976;28;20416;-82
2020/12/10 08:55:02;;;;;;;11.63;10.57;;;;;;;;;;4593389;28;20910;-82
2020/12/10 08:57:19;;;;;;;12.20;10.97;;;;;;;;;;4594281;28;21012;-82
2020/12/10 08:59:35;;;;;;;12.50;11.30;;;;;;;;;;4592971;28;20447;-82
2020/12/10 09:01:52;;;;;;;11.57;10.47;;;;;;;;;;4577538;28;20477;-81
2020/12/10 09:04:10;;;;;;;13.13;11.80;;;;;;;;;;4593491;28;20622;-81
2020/12/10 09:06:33;;;;;;;12.57;11.37;;;;;;;;;;4594742;28;20440;-81
2020/12/10 09:08:51;;;;;;;12.60;11.40;;;;;;;;;;4592481;28;20440;-81
2020/12/10 09:11:08;;;;;;;14.23;12.93;;;;;;;;;;4595282;28;20440;-82
2020/12/10 09:13:25;;;;;;;14.27;12.97;;;;;;;;;;4595502;28;20440;-81
2020/12/10 09:15:42;;;;;;;15.53;13.90;;;;;;;;;;4595642;28;20985;-83
2020/12/10 09:17:59;;;;;;;14.53;13.07;;;;;;;;;;4593202;28;20448;-81
2020/12/10 09:20:16;;;;;;;15.00;13.43;;;;;;;;;;4593994;28;20491;-82
2020/12/10 09:22:33;;;;;;;14.50;13.10;;;;;;;;;;4592742;28;20480;-81
2020/12/10 09:24:49;;;;;;;15.13;13.63;;;;;;;;;;4591907;28;20802;-81
2020/12/10 09:27:08;;;;;;;13.13;11.83;;;;;;;;;;4593427;28;20458;-80
2020/12/10 09:29:25;;;;;;;14.07;12.57;;;;;;;;;;4591157;28;20715;-81
2020/12/10 09:31:42;;;;;;;14.10;12.70;;;;;;;;;;4594079;28;20471;-82
2020/12/10 09:33:59;;;;;;;14.77;13.27;;;;;;;;;;4592746;28;20428;-81
2020/12/10 09:36:15;;;;;;;14.57;13.17;;;;;;;;;;4593190;28;20444;-81
2020/12/10 09:38:35;;;;;;;14.43;12.93;;;;;;;;;;4592927;28;20805;-81
2020/12/10 09:40:52;;;;;;;12.50;10.43;;;;;;;;;;4594434;28;20416;-81
2020/12/10 09:43:08;;;;;;;10.50;9.50;;;;;;;;;;4591220;28;20479;-83
2020/12/10 09:45:25;;;;;;;11.03;10.03;;;;;;;;;;4592860;28;20440;-81
2020/12/10 09:47:44;;;;;;;10.63;9.47;;;;;;;;;;4592727;28;20813;-80
2020/12/10 09:50:01;;;;;;;12.20;10.80;;;;;;;;;;4592389;28;20436;-81
2020/12/10 09:52:18;;;;;;;11.10;10.10;;;;;;;;;;4591535;28;20527;-80
2020/12/10 09:54:48;;;;;;;12.00;10.90;;;;;;;;;;4591758;28;20444;-81
2020/12/10 09:57:10;;;;;;;12.40;11.20;;;;;;;;;;4592606;28;20424;-81
2020/12/10 09:59:27;;;;;;;12.77;11.57;;;;;;;;;;4592410;28;20430;-83
2020/12/10 10:01:45;;;;;;;13.87;12.67;;;8.60;80.00;;;;;;4592245;28;20472;-83
2020/12/10 10:04:02;;;;;;;14.20;12.90;;;;;;;;;;4592503;28;20494;-82
2020/12/10 10:06:19;;;;;;;12.57;11.47;;;;;;;;;;4593664;28;20447;-81
2020/12/10 10:08:34;;;;;;;14.27;12.97;;;;;;;;;;4574718;28;20494;-80
2020/12/10 10:10:52;;;;;;;16.63;15.23;;;;;;;;;;4592715;28;20450;-82
2020/12/10 10:13:08;;;;;;;17.50;15.90;;;;;;;;;;4592432;28;20436;-82
2020/12/10 10:15:24;;;;;;;16.83;15.23;;;;;;;;;;4576391;28;20865;-82
2020/12/10 10:17:41;;;;;;;17.33;15.83;;;;;;;;;;4589948;28;20451;-81
2020/12/10 10:19:57;;;;;;;18.93;17.13;;;;;;;;;;4592366;28;20438;-81
2020/12/10 10:22:15;;;;;;;16.20;14.70;;;;;;;;;;4590093;28;20849;-81
2020/12/10 10:24:32;;;;;;;16.73;15.13;;;;;;;;;;4591655;28;20500;-81
2020/12/10 10:26:49;;;;;;;17.00;15.43;;;;;;;;;;4592691;28;20437;-80
2020/12/10 10:29:07;;;;;;;16.73;15.13;;;;;;;;;;4591958;28;20435;-80
2020/12/10 10:31:24;;;;;;;17.30;15.63;;;;;;;;;;4592704;28;20520;-81
2020/12/10 10:33:41;;;;;;;15.90;14.30;;;;;;;;;;4575504;28;20432;-80
2020/12/10 10:36:02;;;;;;;18.67;16.90;;;;;;;;;;4591650;28;20471;-81
2020/12/10 10:38:19;;;;;;;17.90;16.20;;;;;;;;;;4592208;28;20439;-81
2020/12/10 10:40:39;;;;;;;19.50;17.70;;;6.30;79.30;;;;;;4592459;28;20939;-80
2020/12/10 10:42:56;;;;;;;19.70;17.90;;;;;;;;;;4594338;28;21182;-80
2020/12/10 10:45:13;;;;;;;19.60;17.70;;;;;;;;;;4597049;28;20833;-80
2020/12/10 10:47:29;;;;;;;19.80;17.87;;;;;;;;;;4596339;28;20439;-81
2020/12/10 10:49:46;;;;;;;20.93;18.83;;;;;;;;;;4597945;28;20866;-80
2020/12/10 10:52:02;;;;;;;19.80;18.00;;;;;;;;;;4595391;28;20459;-80
2020/12/10 10:54:18;;;;;;;20.13;18.23;;;;;;;;;;4596796;28;20954;-81
2020/12/10 10:56:34;;;;;;;20.37;18.47;;;;;;;;;;4595560;28;20527;-82
2020/12/10 10:58:52;;;;;;;24.00;21.70;;;;;;;;;;4597800;28;20470;-72
2020/12/10 11:01:07;;;;;;;533.73;353.07;;;;;;;;;;4594096;28;20444;-81
2020/12/10 11:03:23;;;;;;;28.33;25.53;;;;;;;;;;4595665;28;20843;-78
2020/12/10 11:05:42;;;;;;;20.57;18.67;;;;;;;;;;4594717;28;20446;-80
2020/12/10 11:07:58;;;;;;;30.03;27.07;;;;;;;;;;4596099;28;20446;-79
2020/12/10 11:10:13;;;;;;;16.67;15.07;;;;;;;;;;4594538;28;20918;-79
2020/12/10 11:12:29;;;;;;;16.10;14.67;;;;;;;;;;4595304;28;20813;-78
2020/12/10 11:14:47;;;;;;;16.77;15.10;;;;;;;;;;4594911;28;20479;-78
2020/12/10 11:17:03;;;;;;;14.77;13.27;;;;;;;;;;4593985;28;20432;-79
2020/12/10 11:19:19;;;;;;;16.80;14.83;;;6.40;82.40;;;;;;4595582;28;20887;-80
2020/12/10 11:21:34;;;;;;;18.47;16.57;;;;;;;;;;4594487;28;20460;-80
2020/12/10 11:23:50;;;;;;;19.83;17.83;;;;;;;;;;4593524;28;20463;-78
2020/12/10 11:26:06;;;;;;;17.97;16.17;;;;;;;;;;4593034;28;20895;-79
2020/12/10 11:28:22;;;;;;;19.07;17.13;;;;;;;;;;4595569;28;20448;-77
2020/12/10 11:30:39;;;;;;;16.87;15.17;;;;;;;;;;4594027;28;20514;-78
2020/12/10 11:32:55;;;;;;;18.83;16.43;;;;;;;;;;4594924;28;20448;-79
2020/12/10 11:35:10;;;;;;;17.63;15.80;;;;;;;;;;4593807;28;20454;-79
2020/12/10 11:37:26;;;;;;;18.87;16.73;;;6.90;82.40;;;;;;4595201;28;20440;-78
2020/12/10 11:39:48;;;;;;;18.17;16.27;;;6.90;77.70;;;;;;4592241;28;20444;-78
2020/12/10 11:42:03;;;;;;;23.43;19.47;;;6.00;81.40;;;;;;4594758;28;20421;-77
2020/12/10 11:44:22;;;;;;;25.20;20.70;;;;;;;;;;4593581;28;20494;-77
2020/12/10 11:46:39;;;;;;;25.77;22.57;;;;;;;;;;4593779;28;20432;-78
2020/12/10 11:48:55;;;;;;;25.60;22.03;;;5.70;80.40;;;;;;4593647;28;21055;-77
2020/12/10 11:51:10;;;;;;;26.67;22.50;;;;;;;;;;4594841;28;20475;-77
2020/12/10 11:53:32;;;;;;;25.03;22.13;;;8.30;82.50;;;;;;4593124;28;20452;-76
2020/12/10 11:55:48;;;;;;;26.63;23.07;;;;;;;;;;4593397;28;20957;-77
2020/12/10 11:58:04;;;;;;;26.13;22.83;;;;;;;;;;4594637;28;20440;-76
2020/12/10 12:00:20;;;;;;;24.37;21.67;;;;;;;;;;4594290;28;20444;-76
2020/12/10 12:02:38;;;;;;;21.63;19.30;;;;;;;;;;4593613;28;20566;-76
2020/12/10 12:04:54;;;;;;;19.73;17.43;;;;;;;;;;4592154;28;20988;-76
2020/12/10 12:07:10;;;;;;;17.90;15.57;;;;;;;;;;4576159;28;20449;-77
2020/12/10 12:09:26;;;;;;;14.23;12.83;;;8.40;79.20;;;;;;4593553;28;20443;-76
2020/12/10 12:11:41;;;;;;;13.50;12.10;;;;;;;;;;4592580;28;20448;-76
2020/12/10 12:13:57;;;;;;;15.20;13.63;;;;;;;;;;4592891;28;20455;-76
2020/12/10 12:16:13;;;;;;;15.60;14.10;;;;;;;;;;4594251;28;20472;-77
2020/12/10 12:18:30;;;;;;;85.63;70.70;;;;;;;;;;4594384;28;20435;-82
2020/12/10 12:20:47;;;;;;;18.53;16.73;;;;;;;;;;4596093;28;20919;-82
2020/12/10 12:23:05;;;;;;;17.03;15.40;;;;;;;;;;4593505;28;20579;-82
2020/12/10 12:25:20;;;;;;;20.67;18.60;;;;;;;;;;4596144;28;20851;-83
2020/12/10 12:27:36;;;;;;;21.00;18.97;;;;;;;;;;4594638;28;20450;-82
2020/12/10 12:29:52;;;;;;;22.00;19.80;;;;;;;;;;4594616;28;20436;-84
2020/12/10 12:32:09;;;;;;;21.87;19.67;;;;;;;;;;4594523;28;20435;-83
2020/12/10 12:34:26;;;;;;;19.30;17.30;;;;;;;;;;4595765;28;20942;-82
2020/12/10 12:36:42;;;;;;;21.37;19.07;;;;;;;;;;4594571;28;20448;-84
2020/12/10 12:38:58;;;;;;;16.10;14.50;;;;;;;;;;4595933;28;20451;-82
2020/12/10 12:41:15;;;;;;;12.80;11.60;;;;;;;;;;4594644;28;20432;-82
2020/12/10 12:43:31;;;;;;;14.37;12.97;;;;;;;;;;4595028;28;20487;-80
2020/12/10 12:45:49;;;;;;;14.87;13.47;;;;;;;;;;4594105;28;20447;-79
2020/12/10 12:48:05;;;;;;;14.53;13.13;;;;;;;;;;4594661;28;20439;-80
2020/12/10 12:50:22;;;;;;;12.63;11.33;;;;;;;;;;4595301;28;20436;-81
2020/12/10 12:52:39;;;;;;;13.13;11.93;;;;;;;;;;4593374;28;20533;-79
2020/12/10 12:54:57;;;;;;;13.93;12.30;;;;;;;;;;4592878;28;20443;-82
2020/12/10 12:57:13;;;;;;;14.17;12.77;;;;;;;;;;4593766;28;20482;-80
2020/12/10 12:59:31;;;;;;;13.23;11.90;;;;;;;;;;4593450;28;20506;-81
2020/12/10 13:01:48;;;;;;;13.97;12.57;;;;;;;;;;4593481;28;20825;-81
2020/12/10 13:04:06;;;;;;;13.83;12.43;;;7.60;81.00;;;;;;4593285;28;20467;-80
2020/12/10 13:06:23;;;;;;;14.33;12.83;;;;;;;;;;4592083;28;20428;-80